createdAt,value
2018-05-07T00:01:36.909Z,11.07
2018-05-07T00:04:05.229Z,11.00
2018-05-07T00:06:33.701Z,10.88
2018-05-07T00:09:02.161Z,10.74
2018-05-07T00:11:36.862Z,10.68
2018-05-07T00:14:05.124Z,10.63
2018-05-07T00:16:33.459Z,10.56
2018-05-07T00:19:02.035Z,10.53
2018-05-07T00:21:30.356Z,10.49
2018-05-07T00:23:58.682Z,10.48
2018-05-07T00:26:27.031Z,10.37
2018-05-07T00:28:55.454Z,10.38
2018-05-07T00:31:23.856Z,10.35
2018-05-07T00:33:52.183Z,10.37
2018-05-07T00:36:20.508Z,10.35
2018-05-07T00:38:48.829Z,10.25
2018-05-07T00:41:17.201Z,10.24
2018-05-07T00:43:45.600Z,10.18
2018-05-07T00:46:13.977Z,10.07
2018-05-07T00:48:42.301Z,9.99
2018-05-07T00:51:10.665Z,9.89
2018-05-07T00:53:38.993Z,9.90
2018-05-07T00:56:07.484Z,9.85
2018-05-07T00:58:36.539Z,9.73
2018-05-07T01:01:04.864Z,9.75
2018-05-07T01:03:33.255Z,9.73
2018-05-07T01:06:01.616Z,9.66
2018-05-07T01:08:29.943Z,9.54
2018-05-07T01:10:58.273Z,9.59
2018-05-07T01:13:26.618Z,9.52
2018-05-07T01:15:55.157Z,9.56
2018-05-07T01:18:23.508Z,9.56
2018-05-07T01:20:51.823Z,9.50
2018-05-07T01:23:20.147Z,9.49
2018-05-07T01:25:48.458Z,9.44
2018-05-07T01:28:16.870Z,9.41
2018-05-07T01:30:45.303Z,9.43
2018-05-07T01:33:14.328Z,9.40
2018-05-07T01:35:42.715Z,9.43
2018-05-07T01:38:12.026Z,9.43
2018-05-07T01:40:40.401Z,9.41
2018-05-07T01:43:08.746Z,9.37
2018-05-07T01:45:37.134Z,9.35
2018-05-07T01:48:05.459Z,9.28
2018-05-07T01:50:33.781Z,9.23
2018-05-07T01:53:02.122Z,9.17
2018-05-07T01:55:30.424Z,9.12
2018-05-07T01:57:59.190Z,9.11
2018-05-07T02:00:28.320Z,9.06
2018-05-07T02:02:56.614Z,9.05
2018-05-07T02:05:25.040Z,8.92
2018-05-07T02:07:53.305Z,8.93
2018-05-07T02:10:21.647Z,8.86
2018-05-07T02:12:49.953Z,8.85
2018-05-07T02:15:18.263Z,8.85
2018-05-07T02:17:46.645Z,8.82
2018-05-07T02:20:15.044Z,8.79
2018-05-07T02:22:43.517Z,8.76
2018-05-07T02:25:11.844Z,8.61
2018-05-07T02:27:40.228Z,8.60
2018-05-07T02:30:08.542Z,8.58
2018-05-07T02:32:37.553Z,8.54
2018-05-07T02:35:05.916Z,8.50
2018-05-07T02:37:34.620Z,8.43
2018-05-07T02:40:03.710Z,8.46
2018-05-07T02:42:32.023Z,8.46
2018-05-07T02:45:00.409Z,8.47
2018-05-07T02:47:28.732Z,8.44
2018-05-07T02:49:57.278Z,8.39
2018-05-07T02:52:25.594Z,8.39
2018-05-07T02:54:53.892Z,8.36
2018-05-07T02:57:22.208Z,8.37
2018-05-07T02:59:50.525Z,8.32
2018-05-07T03:02:20.765Z,8.30
2018-05-07T03:04:49.066Z,8.35
2018-05-07T03:07:17.440Z,8.36
2018-05-07T03:09:45.735Z,8.31
2018-05-07T03:12:14.234Z,8.25
2018-05-07T03:14:42.525Z,8.25
2018-05-07T03:17:10.846Z,8.25
2018-05-07T03:19:39.205Z,8.18
2018-05-07T03:22:07.574Z,8.21
2018-05-07T03:24:35.872Z,8.23
2018-05-07T03:27:05.133Z,8.18
2018-05-07T03:29:33.650Z,8.16
2018-05-07T03:32:01.975Z,8.16
2018-05-07T03:34:30.310Z,8.18
2018-05-07T03:36:59.279Z,8.13
2018-05-07T03:39:27.622Z,8.08
2018-05-07T03:41:55.971Z,8.05
2018-05-07T03:44:25.113Z,8.12
2018-05-07T03:46:53.444Z,8.09
2018-05-07T03:49:21.779Z,8.17
2018-05-07T03:51:51.057Z,8.13
2018-05-07T03:54:19.388Z,8.16
2018-05-07T03:56:47.693Z,8.16
2018-05-07T03:59:16.026Z,8.18
2018-05-07T04:01:44.328Z,8.20
2018-05-07T04:04:12.761Z,8.20
2018-05-07T04:06:41.077Z,8.24
2018-05-07T04:09:09.385Z,8.28
2018-05-07T04:11:37.690Z,8.34
2018-05-07T04:14:06.131Z,8.34
2018-05-07T04:16:46.254Z,8.32
2018-05-07T04:19:26.358Z,8.37
2018-05-07T04:22:06.439Z,8.38
2018-05-07T04:24:34.777Z,8.47
2018-05-07T04:27:03.125Z,8.48
2018-05-07T04:29:31.417Z,8.55
2018-05-07T04:31:59.871Z,8.56
2018-05-07T04:34:28.274Z,8.62
2018-05-07T04:36:56.675Z,8.70
2018-05-07T04:39:25.024Z,8.76
2018-05-07T04:41:53.334Z,8.85
2018-05-07T04:44:21.646Z,8.95
2018-05-07T04:46:49.968Z,9.02
2018-05-07T04:49:18.295Z,9.01
2018-05-07T04:51:47.425Z,9.08
2018-05-07T04:54:16.037Z,9.16
2018-05-07T04:56:44.442Z,9.19
2018-05-07T04:59:12.879Z,9.11
2018-05-07T05:01:41.202Z,9.13
2018-05-07T05:04:09.569Z,9.08
2018-05-07T05:06:37.618Z,9.14
2018-05-07T05:09:05.999Z,9.16
2018-05-07T05:11:34.391Z,9.24
2018-05-07T05:14:02.755Z,9.34
2018-05-07T05:16:31.199Z,9.46
2018-05-07T05:18:59.610Z,9.56
2018-05-07T05:21:29.469Z,9.67
2018-05-07T05:23:57.703Z,9.73
2018-05-07T05:26:26.016Z,9.87
2018-05-07T05:28:54.384Z,9.93
2018-05-07T05:31:22.707Z,9.95
2018-05-07T05:33:51.034Z,10.02
2018-05-07T05:36:19.422Z,10.15
2018-05-07T05:38:47.745Z,10.28
2018-05-07T05:41:16.112Z,10.34
2018-05-07T05:43:44.572Z,10.58
2018-05-07T05:46:12.909Z,11.24
2018-05-07T05:48:41.245Z,12.45
2018-05-07T05:51:09.569Z,14.38
2018-05-07T05:53:37.996Z,16.10
2018-05-07T05:56:06.389Z,17.43
2018-05-07T05:58:34.716Z,18.42
2018-05-07T06:01:03.049Z,19.01
2018-05-07T06:03:31.380Z,19.27
2018-05-07T06:05:59.748Z,19.76
2018-05-07T06:08:28.133Z,20.69
2018-05-07T06:10:56.513Z,20.56
2018-05-07T06:13:24.848Z,21.38
2018-05-07T06:15:53.194Z,21.10
2018-05-07T06:18:21.621Z,21.61
2018-05-07T06:20:49.950Z,22.35
2018-05-07T06:23:18.344Z,22.15
2018-05-07T06:25:46.656Z,22.87
2018-05-07T06:28:14.993Z,23.67
2018-05-07T06:30:43.382Z,23.70
2018-05-07T06:33:11.730Z,22.80
2018-05-07T06:35:40.151Z,22.47
2018-05-07T06:38:08.480Z,23.10
2018-05-07T06:40:36.815Z,23.55
2018-05-07T06:43:05.210Z,24.08
2018-05-07T06:45:33.580Z,24.32
2018-05-07T06:48:01.880Z,24.44
2018-05-07T06:50:30.260Z,25.07
2018-05-07T06:52:58.705Z,25.21
2018-05-07T06:55:27.093Z,24.61
2018-05-07T06:57:55.481Z,23.90
2018-05-07T07:00:23.809Z,24.91
2018-05-07T07:02:52.249Z,24.55
2018-05-07T07:05:20.458Z,25.65
2018-05-07T07:07:48.864Z,25.72
2018-05-07T07:10:17.224Z,26.39
2018-05-07T07:12:45.622Z,26.70
2018-05-07T07:15:13.963Z,27.79
2018-05-07T07:17:42.319Z,25.67
2018-05-07T07:20:10.649Z,26.44
2018-05-07T07:22:38.960Z,27.21
2018-05-07T07:25:07.286Z,26.21
2018-05-07T07:27:35.673Z,26.37
2018-05-07T07:30:03.987Z,27.41
2018-05-07T07:32:32.312Z,28.11
2018-05-07T07:35:01.269Z,28.89
2018-05-07T07:37:29.659Z,29.65
2018-05-07T07:39:58.059Z,29.32
2018-05-07T07:42:26.430Z,29.10
2018-05-07T07:44:54.757Z,27.90
2018-05-07T07:47:23.088Z,29.10
2018-05-07T07:49:51.418Z,29.83
2018-05-07T07:52:19.767Z,29.62
2018-05-07T07:54:48.098Z,29.52
2018-05-07T07:57:16.427Z,29.82
2018-05-07T07:59:44.751Z,28.60
2018-05-07T08:02:13.088Z,26.87
2018-05-07T08:04:41.469Z,27.50
2018-05-07T08:07:10.116Z,27.59
2018-05-07T08:09:38.433Z,28.04
2018-05-07T08:12:06.866Z,27.85
2018-05-07T08:14:35.152Z,27.59
2018-05-07T08:17:03.550Z,27.49
2018-05-07T08:19:32.021Z,28.03
2018-05-07T08:22:00.358Z,28.20
2018-05-07T08:24:28.706Z,28.31
2018-05-07T08:26:57.099Z,28.15
2018-05-07T08:29:25.459Z,29.60
2018-05-07T08:31:53.768Z,28.66
2018-05-07T08:34:22.106Z,27.48
2018-05-07T08:36:50.459Z,27.22
2018-05-07T08:39:18.777Z,27.27
2018-05-07T08:41:47.103Z,28.38
2018-05-07T08:44:15.493Z,27.90
2018-05-07T08:46:43.800Z,27.95
2018-05-07T08:49:12.131Z,28.49
2018-05-07T08:51:40.457Z,28.65
2018-05-07T08:54:08.912Z,28.52
2018-05-07T08:56:37.215Z,29.06
2018-05-07T08:59:05.591Z,29.71
2018-05-07T09:01:33.894Z,28.95
2018-05-07T09:04:02.298Z,27.85
2018-05-07T09:06:30.653Z,28.25
2018-05-07T09:08:58.988Z,28.64
2018-05-07T09:11:27.359Z,28.34
2018-05-07T09:13:55.687Z,28.16
2018-05-07T09:16:24.036Z,28.42
2018-05-07T09:18:52.425Z,28.30
2018-05-07T09:21:20.769Z,28.42
2018-05-07T09:23:49.126Z,27.65
2018-05-07T09:26:17.450Z,27.93
2018-05-07T09:28:45.774Z,27.49
2018-05-07T09:31:14.108Z,28.04
2018-05-07T09:33:42.429Z,28.76
2018-05-07T09:36:10.739Z,28.68
2018-05-07T09:38:39.146Z,27.58
2018-05-07T09:41:07.479Z,27.46
2018-05-07T09:43:35.828Z,27.96
2018-05-07T09:46:04.141Z,28.20
2018-05-07T09:48:32.480Z,28.65
2018-05-07T09:51:00.811Z,28.90
2018-05-07T09:53:29.307Z,28.45
2018-05-07T09:55:57.702Z,28.67
2018-05-07T09:58:26.026Z,27.90
2018-05-07T10:00:54.340Z,28.18
2018-05-07T10:03:22.664Z,28.16
2018-05-07T10:05:50.992Z,28.71
2018-05-07T10:08:19.338Z,28.36
2018-05-07T10:10:47.692Z,26.94
2018-05-07T10:13:16.018Z,26.58
2018-05-07T10:15:44.449Z,26.90
2018-05-07T10:18:12.780Z,27.50
2018-05-07T10:20:41.098Z,27.72
2018-05-07T10:23:09.418Z,28.28
2018-05-07T10:25:37.735Z,29.10
2018-05-07T10:28:06.086Z,29.04
2018-05-07T10:30:34.461Z,29.29
2018-05-07T10:33:02.781Z,29.14
2018-05-07T10:35:31.088Z,28.64
2018-05-07T10:37:59.421Z,28.73
2018-05-07T10:40:27.736Z,28.80
2018-05-07T10:42:56.071Z,28.79
2018-05-07T10:45:24.390Z,28.70
2018-05-07T10:47:52.728Z,28.77
2018-05-07T10:50:21.045Z,28.88
2018-05-07T10:52:49.378Z,29.52
2018-05-07T10:55:17.717Z,30.14
2018-05-07T10:57:46.042Z,29.91
2018-05-07T11:00:14.473Z,30.03
2018-05-07T11:02:42.864Z,29.55
2018-05-07T11:05:11.260Z,29.31
2018-05-07T11:07:39.578Z,29.50
2018-05-07T11:10:07.947Z,28.24
2018-05-07T11:12:36.344Z,27.49
2018-05-07T11:15:04.732Z,28.00
2018-05-07T11:17:33.048Z,28.55
2018-05-07T11:20:01.420Z,29.05
2018-05-07T11:22:29.847Z,29.00
2018-05-07T11:24:58.203Z,29.30
2018-05-07T11:27:26.547Z,29.55
2018-05-07T11:29:54.869Z,30.24
2018-05-07T11:32:23.219Z,30.64
2018-05-07T11:34:51.567Z,30.29
2018-05-07T11:37:19.912Z,30.05
2018-05-07T11:39:48.225Z,29.75
2018-05-07T11:42:16.661Z,29.57
2018-05-07T11:44:44.983Z,29.48
2018-05-07T11:47:13.333Z,30.16
2018-05-07T11:49:41.718Z,30.47
2018-05-07T11:52:10.056Z,30.36
2018-05-07T11:54:38.405Z,30.33
2018-05-07T11:57:06.750Z,30.43
2018-05-07T11:59:35.062Z,30.95
2018-05-07T12:02:03.383Z,30.47
2018-05-07T12:04:31.706Z,30.47
2018-05-07T12:07:00.040Z,30.56
2018-05-07T12:09:28.363Z,30.36
2018-05-07T12:11:56.700Z,30.64
2018-05-07T12:14:25.146Z,30.12
2018-05-07T12:16:53.443Z,29.95
2018-05-07T12:19:21.782Z,29.93
2018-05-07T12:21:50.152Z,30.44
2018-05-07T12:24:18.466Z,31.12
2018-05-07T12:26:46.916Z,30.89
2018-05-07T12:29:15.242Z,31.46
2018-05-07T12:31:43.776Z,31.59
2018-05-07T12:34:11.984Z,31.19
2018-05-07T12:36:40.314Z,31.04
2018-05-07T12:39:08.713Z,31.05
2018-05-07T12:41:37.047Z,31.22
2018-05-07T12:44:05.405Z,30.53
2018-05-07T12:46:33.806Z,29.03
2018-05-07T12:49:02.141Z,30.19
2018-05-07T12:51:30.494Z,31.14
2018-05-07T12:53:58.827Z,31.65
2018-05-07T12:56:27.168Z,32.01
2018-05-07T12:58:55.501Z,32.31
2018-05-07T13:01:24.017Z,31.32
2018-05-07T13:03:52.355Z,31.67
2018-05-07T13:06:20.729Z,31.67
2018-05-07T13:08:49.043Z,32.12
2018-05-07T13:11:17.427Z,32.26
2018-05-07T13:13:45.834Z,31.73
2018-05-07T13:16:14.168Z,32.06
2018-05-07T13:18:42.490Z,31.53
2018-05-07T13:21:10.933Z,32.04
2018-05-07T13:23:39.233Z,31.26
2018-05-07T13:26:07.653Z,31.45
2018-05-07T13:28:35.975Z,32.47
2018-05-07T13:31:04.358Z,32.27
2018-05-07T13:33:32.695Z,31.17
2018-05-07T13:36:01.025Z,31.03
2018-05-07T13:38:29.390Z,30.46
2018-05-07T13:40:57.746Z,31.65
2018-05-07T13:43:26.107Z,31.31
2018-05-07T13:45:54.459Z,30.42
2018-05-07T13:48:22.785Z,30.42
2018-05-07T13:50:51.105Z,30.68
2018-05-07T13:53:19.488Z,30.34
2018-05-07T13:55:47.872Z,29.28
2018-05-07T13:58:16.266Z,30.14
2018-05-07T14:00:44.577Z,30.39
2018-05-07T14:03:12.919Z,30.81
2018-05-07T14:05:41.313Z,30.16
2018-05-07T14:08:09.723Z,29.98
2018-05-07T14:10:38.041Z,30.37
2018-05-07T14:13:06.382Z,30.90
2018-05-07T14:15:35.163Z,30.27
2018-05-07T14:18:03.492Z,30.68
2018-05-07T14:20:31.805Z,31.33
2018-05-07T14:23:00.129Z,31.29
2018-05-07T14:25:28.481Z,30.14
2018-05-07T14:27:56.813Z,29.51
2018-05-07T14:30:25.163Z,30.02
2018-05-07T14:32:53.491Z,30.43
2018-05-07T14:35:21.824Z,29.81
2018-05-07T14:37:50.178Z,29.69
2018-05-07T14:40:18.512Z,29.91
2018-05-07T14:42:46.912Z,29.80
2018-05-07T14:45:15.151Z,29.80
2018-05-07T14:47:43.465Z,29.89
2018-05-07T14:50:11.826Z,30.07
2018-05-07T14:52:40.130Z,29.95
2018-05-07T14:55:08.449Z,30.50
2018-05-07T14:57:36.759Z,30.57
2018-05-07T15:00:05.176Z,30.57
2018-05-07T15:02:33.502Z,30.33
2018-05-07T15:05:01.837Z,30.38
2018-05-07T15:07:30.494Z,30.25
2018-05-07T15:09:58.858Z,30.28
2018-05-07T15:12:27.174Z,29.38
2018-05-07T15:14:55.599Z,29.49
2018-05-07T15:17:23.925Z,30.08
2018-05-07T15:19:52.299Z,29.80
2018-05-07T15:22:20.681Z,29.63
2018-05-07T15:24:49.077Z,28.91
2018-05-07T15:27:17.407Z,28.70
2018-05-07T15:29:45.750Z,28.88
2018-05-07T15:32:14.141Z,28.84
2018-05-07T15:34:42.472Z,28.01
2018-05-07T15:37:10.795Z,27.43
2018-05-07T15:39:39.229Z,27.64
2018-05-07T15:42:07.611Z,28.05
2018-05-07T15:44:36.093Z,27.77
2018-05-07T15:47:04.526Z,27.72
2018-05-07T15:49:32.861Z,27.50
2018-05-07T15:52:01.217Z,27.04
2018-05-07T15:54:29.547Z,27.28
2018-05-07T15:56:57.868Z,27.71
2018-05-07T15:59:26.207Z,28.00
2018-05-07T16:01:54.529Z,27.94
2018-05-07T16:04:22.876Z,28.10
2018-05-07T16:06:51.241Z,27.78
2018-05-07T16:09:19.579Z,27.86
2018-05-07T16:11:47.917Z,27.58
2018-05-07T16:14:16.317Z,27.96
2018-05-07T16:16:44.627Z,27.81
2018-05-07T16:19:13.055Z,27.79
2018-05-07T16:21:41.402Z,27.47
2018-05-07T16:24:09.774Z,26.70
2018-05-07T16:26:38.148Z,26.63
2018-05-07T16:29:06.482Z,26.55
2018-05-07T16:31:34.883Z,26.66
2018-05-07T16:34:03.206Z,26.60
2018-05-07T16:36:31.631Z,26.47
2018-05-07T16:38:59.983Z,26.59
2018-05-07T16:41:28.415Z,26.52
2018-05-07T16:43:56.729Z,26.72
2018-05-07T16:46:25.129Z,26.49
2018-05-07T16:48:53.539Z,26.37
2018-05-07T16:51:21.862Z,26.59
2018-05-07T16:53:50.285Z,26.23
2018-05-07T16:56:18.625Z,25.81
2018-05-07T16:58:46.958Z,25.46
2018-05-07T17:01:15.358Z,25.03
2018-05-07T17:03:43.841Z,24.77
2018-05-07T17:06:12.209Z,24.60
2018-05-07T17:08:40.619Z,24.55
2018-05-07T17:11:09.033Z,24.45
2018-05-07T17:13:37.336Z,24.30
2018-05-07T17:16:05.650Z,24.18
2018-05-07T17:18:34.035Z,24.18
2018-05-07T17:21:02.478Z,24.10
2018-05-07T17:23:30.818Z,23.86
2018-05-07T17:25:59.148Z,23.76
2018-05-07T17:28:27.570Z,23.67
2018-05-07T17:30:55.879Z,23.60
2018-05-07T17:33:24.196Z,23.53
2018-05-07T17:35:52.503Z,23.40
2018-05-07T17:38:20.851Z,23.37
2018-05-07T17:40:49.199Z,23.29
2018-05-07T17:43:17.716Z,23.15
2018-05-07T17:45:59.714Z,23.13
2018-05-07T17:48:39.894Z,23.02
2018-05-07T17:51:08.268Z,22.92
2018-05-07T17:53:36.587Z,22.89
2018-05-07T17:56:04.974Z,22.73
2018-05-07T17:58:33.283Z,22.63
2018-05-07T18:01:01.638Z,22.53
2018-05-07T18:03:29.962Z,22.45
2018-05-07T18:05:58.319Z,22.32
2018-05-07T18:08:26.653Z,22.23
2018-05-07T18:10:55.076Z,22.13
2018-05-07T18:13:23.420Z,22.07
2018-05-07T18:15:51.833Z,21.92
2018-05-07T18:18:20.161Z,21.82
2018-05-07T18:20:48.601Z,21.63
2018-05-07T18:23:16.944Z,21.47
2018-05-07T18:25:45.335Z,21.30
2018-05-07T18:28:13.786Z,21.16
2018-05-07T18:30:42.137Z,21.02
2018-05-07T18:33:10.469Z,20.91
2018-05-07T18:35:38.778Z,20.73
2018-05-07T18:38:07.155Z,20.65
2018-05-07T18:40:35.465Z,20.59
2018-05-07T18:43:03.828Z,20.52
2018-05-07T18:45:32.211Z,20.39
2018-05-07T18:48:00.686Z,20.28
2018-05-07T18:50:29.074Z,20.19
2018-05-07T18:52:57.413Z,20.13
2018-05-07T18:55:25.773Z,20.07
2018-05-07T18:57:54.111Z,19.98
2018-05-07T19:00:22.489Z,19.85
2018-05-07T19:02:50.834Z,19.74
2018-05-07T19:05:19.149Z,19.66
2018-05-07T19:07:47.537Z,19.55
2018-05-07T19:10:15.932Z,19.44
2018-05-07T19:12:44.279Z,19.29
2018-05-07T19:15:12.617Z,19.18
2018-05-07T19:17:41.013Z,19.06
2018-05-07T19:20:09.398Z,19.13
2018-05-07T19:22:37.785Z,19.10
2018-05-07T19:25:06.164Z,19.02
2018-05-07T19:27:34.531Z,18.92
2018-05-07T19:30:02.864Z,18.82
2018-05-07T19:32:31.248Z,18.73
2018-05-07T19:34:59.596Z,18.66
2018-05-07T19:37:27.953Z,18.43
2018-05-07T19:39:56.456Z,18.25
2018-05-07T19:42:24.700Z,18.03
2018-05-07T19:44:53.103Z,17.85
2018-05-07T19:47:21.449Z,17.71
2018-05-07T19:49:49.778Z,17.57
2018-05-07T19:52:18.189Z,17.51
2018-05-07T19:54:46.523Z,17.40
2018-05-07T19:57:14.853Z,17.34
2018-05-07T19:59:43.189Z,17.25
2018-05-07T20:02:11.531Z,17.15
2018-05-07T20:04:39.874Z,17.15
2018-05-07T20:07:08.256Z,17.03
2018-05-07T20:09:36.591Z,16.91
2018-05-07T20:12:04.936Z,16.81
2018-05-07T20:14:33.430Z,16.73
2018-05-07T20:17:01.810Z,16.71
2018-05-07T20:19:30.155Z,16.65
2018-05-07T20:21:58.596Z,16.57
2018-05-07T20:24:26.914Z,16.48
2018-05-07T20:26:55.240Z,16.39
2018-05-07T20:29:23.602Z,16.42
2018-05-07T20:31:51.920Z,16.39
2018-05-07T20:34:20.260Z,16.22
2018-05-07T20:36:48.567Z,16.20
2018-05-07T20:39:16.895Z,16.14
2018-05-07T20:41:45.338Z,16.08
2018-05-07T20:44:14.089Z,15.99
2018-05-07T20:46:42.405Z,15.92
2018-05-07T20:49:10.803Z,15.84
2018-05-07T20:51:39.173Z,15.78
2018-05-07T20:54:07.585Z,15.72
2018-05-07T20:56:35.917Z,15.68
2018-05-07T20:59:04.261Z,15.62
2018-05-07T21:01:32.606Z,15.60
2018-05-07T21:04:01.011Z,15.57
2018-05-07T21:06:29.337Z,15.56
2018-05-07T21:08:57.673Z,15.58
2018-05-07T21:11:26.026Z,15.59
2018-05-07T21:13:54.408Z,15.58
2018-05-07T21:16:22.767Z,15.52
2018-05-07T21:18:51.084Z,15.52
2018-05-07T21:21:19.484Z,15.45
2018-05-07T21:23:47.763Z,15.46
2018-05-07T21:26:16.111Z,15.44
2018-05-07T21:28:44.571Z,15.40
2018-05-07T21:31:12.890Z,15.37
2018-05-07T21:33:41.273Z,15.77
2018-05-07T21:36:09.675Z,15.94
2018-05-07T21:38:38.033Z,15.96
2018-05-07T21:41:06.386Z,15.91
2018-05-07T21:43:34.726Z,15.87
2018-05-07T21:46:03.099Z,15.85
2018-05-07T21:48:31.414Z,15.77
2018-05-07T21:50:59.763Z,15.73
2018-05-07T21:53:28.082Z,15.74
2018-05-07T21:55:56.422Z,15.69
2018-05-07T21:58:24.753Z,15.61
2018-05-07T22:00:53.164Z,15.60
2018-05-07T22:03:21.572Z,15.53
2018-05-07T22:05:49.931Z,15.51
2018-05-07T22:08:18.330Z,15.49
2018-05-07T22:10:46.743Z,15.41
2018-05-07T22:13:15.056Z,15.35
2018-05-07T22:15:43.926Z,15.25
2018-05-07T22:18:12.245Z,15.20
2018-05-07T22:20:40.621Z,15.08
2018-05-07T22:23:09.019Z,15.04
2018-05-07T22:25:37.353Z,15.00
2018-05-07T22:28:05.823Z,14.96
2018-05-07T22:30:34.172Z,14.86
2018-05-07T22:33:02.578Z,14.69
2018-05-07T22:35:30.899Z,14.61
2018-05-07T22:37:59.251Z,14.44
2018-05-07T22:40:27.588Z,14.35
2018-05-07T22:42:55.915Z,14.31
2018-05-07T22:45:24.449Z,14.27
2018-05-07T22:47:52.846Z,14.25
2018-05-07T22:50:21.220Z,14.26
2018-05-07T22:52:49.619Z,14.23
2018-05-07T22:55:20.657Z,14.18
2018-05-07T22:57:48.984Z,14.10
2018-05-07T23:00:17.310Z,14.03
2018-05-07T23:02:48.478Z,14.01
2018-05-07T23:05:16.801Z,14.00
2018-05-07T23:07:45.384Z,13.94
2018-05-07T23:10:13.795Z,13.88
2018-05-07T23:12:42.106Z,13.83
2018-05-07T23:15:10.454Z,13.78
2018-05-07T23:17:38.967Z,13.78
2018-05-07T23:20:07.302Z,13.66
2018-05-07T23:22:35.627Z,13.52
2018-05-07T23:25:04.047Z,13.47
2018-05-07T23:27:32.381Z,13.33
2018-05-07T23:30:00.688Z,13.25
2018-05-07T23:32:29.031Z,13.17
2018-05-07T23:34:57.382Z,13.13
2018-05-07T23:37:25.790Z,13.08
2018-05-07T23:39:54.179Z,13.02
2018-05-07T23:42:22.498Z,13.00
2018-05-07T23:44:50.823Z,12.88
2018-05-07T23:47:19.152Z,12.85
2018-05-07T23:49:47.463Z,12.89
2018-05-07T23:52:15.800Z,12.81
2018-05-07T23:54:44.147Z,12.70
2018-05-07T23:57:12.467Z,12.66
2018-05-07T23:59:40.789Z,12.54
